createdAt,value
2022-10-23T00:00:03.187Z,11.50
2022-10-23T00:00:12.603Z,11.49
2022-10-23T00:00:21.608Z,11.50
2022-10-23T00:00:31.689Z,11.50
2022-10-23T00:00:41.721Z,11.50
2022-10-23T00:00:51.566Z,11.49
2022-10-23T00:01:02.991Z,11.49
2022-10-23T00:01:12.979Z,11.48
2022-10-23T00:01:22.985Z,11.49
2022-10-23T00:01:31.594Z,11.49
2022-10-23T00:01:42.992Z,11.50
2022-10-23T00:01:51.515Z,11.49
2022-10-23T00:02:03.048Z,11.49
2022-10-23T00:02:11.601Z,11.48
2022-10-23T00:02:23.051Z,11.49
2022-10-23T00:02:33.022Z,11.48
2022-10-23T00:02:41.891Z,11.47
2022-10-23T00:02:51.572Z,11.48
2022-10-23T00:03:01.492Z,11.48
2022-10-23T00:03:11.520Z,11.48
2022-10-23T00:03:21.528Z,11.47
2022-10-23T00:03:31.524Z,11.47
2022-10-23T00:03:41.547Z,11.47
2022-10-23T00:03:51.521Z,11.47
2022-10-23T00:04:02.949Z,11.46
2022-10-23T00:04:12.970Z,11.46
2022-10-23T00:04:23.013Z,11.47
2022-10-23T00:04:32.966Z,11.46
2022-10-23T00:04:42.950Z,11.47
2022-10-23T00:04:52.463Z,11.47
2022-10-23T00:05:01.517Z,11.48
2022-10-23T00:05:11.512Z,11.49
2022-10-23T00:05:22.943Z,11.49
2022-10-23T00:05:32.473Z,11.47
2022-10-23T00:05:42.392Z,11.48
2022-10-23T00:05:51.531Z,11.47
2022-10-23T00:06:02.942Z,11.48
2022-10-23T00:06:12.980Z,11.47
2022-10-23T00:06:21.505Z,11.47
2022-10-23T00:06:31.553Z,11.48
2022-10-23T00:06:41.472Z,11.47
2022-10-23T00:06:51.472Z,11.46
2022-10-23T00:07:01.531Z,11.46
2022-10-23T00:07:12.922Z,11.45
2022-10-23T00:07:21.594Z,11.45
2022-10-23T00:07:31.494Z,11.46
2022-10-23T00:07:41.717Z,11.46
2022-10-23T00:07:52.445Z,11.45
2022-10-23T00:08:01.540Z,11.45
2022-10-23T00:08:11.467Z,11.45
2022-10-23T00:08:21.646Z,11.45
2022-10-23T00:08:32.932Z,11.44
2022-10-23T00:08:41.494Z,11.43
2022-10-23T00:08:52.922Z,11.44
2022-10-23T00:09:02.930Z,11.43
2022-10-23T00:09:12.911Z,11.44
2022-10-23T00:09:22.924Z,11.43
2022-10-23T00:09:32.911Z,11.44
2022-10-23T00:09:41.480Z,11.43
2022-10-23T00:09:51.442Z,11.44
2022-10-23T00:10:03.017Z,11.43
2022-10-23T00:10:11.454Z,11.41
2022-10-23T00:10:22.934Z,11.42
2022-10-23T00:10:31.858Z,11.42
2022-10-23T00:10:42.425Z,11.43
2022-10-23T00:10:52.978Z,11.42
2022-10-23T00:11:01.463Z,11.42
2022-10-23T00:11:12.921Z,11.44
2022-10-23T00:11:21.487Z,11.43
2022-10-23T00:11:31.462Z,11.44
2022-10-23T00:11:42.910Z,11.44
2022-10-23T00:11:51.449Z,11.43
2022-10-23T00:12:02.893Z,11.44
2022-10-23T00:12:11.444Z,11.43
2022-10-23T00:12:22.904Z,11.44
2022-10-23T00:12:31.436Z,11.42
2022-10-23T00:12:43.135Z,11.43
2022-10-23T00:12:51.454Z,11.42
2022-10-23T00:13:02.904Z,11.43
2022-10-23T00:13:12.901Z,11.41
2022-10-23T00:13:22.894Z,11.41
2022-10-23T00:13:32.093Z,11.42
2022-10-23T00:13:42.017Z,11.42
2022-10-23T00:13:53.060Z,11.37
2022-10-23T00:14:01.611Z,11.39
2022-10-23T00:14:13.045Z,11.41
2022-10-23T00:14:21.613Z,11.40
2022-10-23T00:14:33.085Z,11.42
2022-10-23T00:14:43.074Z,11.40
2022-10-23T00:14:52.220Z,11.41
2022-10-23T00:15:03.037Z,11.42
2022-10-23T00:15:11.654Z,11.40
2022-10-23T00:15:21.605Z,11.42
2022-10-23T00:15:31.615Z,11.41
2022-10-23T00:15:41.686Z,11.41
2022-10-23T00:16:03.049Z,11.41
2022-10-23T00:16:12.143Z,11.41
2022-10-23T00:16:23.068Z,11.41
2022-10-23T00:16:33.054Z,11.40
2022-10-23T00:16:43.059Z,11.41
2022-10-23T00:16:53.036Z,11.42
2022-10-23T00:17:01.627Z,11.42
2022-10-23T00:17:13.056Z,11.43
2022-10-23T00:17:23.027Z,11.42
2022-10-23T00:17:32.396Z,11.43
2022-10-23T00:17:43.459Z,11.43
2022-10-23T00:17:53.026Z,11.42
2022-10-23T00:18:03.016Z,11.42
2022-10-23T00:18:12.255Z,11.42
2022-10-23T00:18:23.006Z,11.44
2022-10-23T00:18:33.015Z,11.43
2022-10-23T00:18:43.037Z,11.42
2022-10-23T00:18:53.046Z,11.42
2022-10-23T00:19:02.328Z,11.42
2022-10-23T00:19:13.018Z,11.43
2022-10-23T00:19:21.641Z,11.41
2022-10-23T00:19:31.582Z,11.42
2022-10-23T00:19:43.070Z,11.41
2022-10-23T00:19:53.006Z,11.40
2022-10-23T00:20:03.017Z,11.41
2022-10-23T00:20:13.017Z,11.41
2022-10-23T00:20:21.556Z,11.41
2022-10-23T00:20:31.566Z,11.42
2022-10-23T00:20:41.571Z,11.41
2022-10-23T00:20:52.410Z,11.41
2022-10-23T00:21:01.545Z,11.40
2022-10-23T00:21:13.006Z,11.41
2022-10-23T00:21:22.996Z,11.40
2022-10-23T00:21:32.446Z,11.41
2022-10-23T00:21:41.688Z,11.41
2022-10-23T00:21:53.006Z,11.42
2022-10-23T00:22:01.552Z,11.39
2022-10-23T00:22:12.341Z,11.42
2022-10-23T00:22:23.007Z,11.40
2022-10-23T00:22:31.528Z,11.40
2022-10-23T00:22:41.567Z,11.41
2022-10-23T00:22:51.527Z,11.41
2022-10-23T00:23:01.541Z,11.40
2022-10-23T00:23:11.572Z,11.41
2022-10-23T00:23:21.518Z,11.40
2022-10-23T00:23:31.540Z,11.40
2022-10-23T00:23:41.518Z,11.40
2022-10-23T00:23:51.617Z,11.39
2022-10-23T00:24:01.597Z,11.40
2022-10-23T00:24:11.597Z,11.40
2022-10-23T00:24:23.008Z,11.39
2022-10-23T00:24:33.003Z,11.39
2022-10-23T00:24:42.996Z,11.39
2022-10-23T00:24:51.630Z,11.40
2022-10-23T00:25:01.570Z,11.41
2022-10-23T00:25:11.587Z,11.41
2022-10-23T00:25:21.637Z,11.41
2022-10-23T00:25:31.660Z,11.41
2022-10-23T00:25:41.628Z,11.41
2022-10-23T00:25:51.642Z,11.41
2022-10-23T00:26:02.968Z,11.41
2022-10-23T00:26:12.476Z,11.40
2022-10-23T00:26:21.632Z,11.42
2022-10-23T00:26:32.988Z,11.42
2022-10-23T00:26:41.554Z,11.40
2022-10-23T00:26:51.538Z,11.41
2022-10-23T00:27:01.681Z,11.41
2022-10-23T00:27:11.540Z,11.40
2022-10-23T00:27:21.691Z,11.40
2022-10-23T00:27:31.617Z,11.40
2022-10-23T00:27:41.768Z,11.40
2022-10-23T00:27:53.004Z,11.41
2022-10-23T00:28:01.521Z,11.40
2022-10-23T00:28:11.508Z,11.41
2022-10-23T00:28:21.485Z,11.41
2022-10-23T00:28:31.518Z,11.41
2022-10-23T00:28:42.969Z,11.42
2022-10-23T00:28:51.510Z,11.40
2022-10-23T00:29:01.558Z,11.41
2022-10-23T00:29:11.541Z,11.41
2022-10-23T00:29:22.954Z,11.41
2022-10-23T00:29:32.940Z,11.40
2022-10-23T00:29:42.950Z,11.41
2022-10-23T00:29:52.972Z,11.41
2022-10-23T00:30:02.929Z,11.42
2022-10-23T00:30:11.520Z,11.42
2022-10-23T00:30:22.970Z,11.43
2022-10-23T00:30:31.510Z,11.42
2022-10-23T00:30:41.517Z,11.43
2022-10-23T00:30:52.920Z,11.42
2022-10-23T00:31:01.482Z,11.41
2022-10-23T00:31:12.448Z,11.42
2022-10-23T00:31:21.489Z,11.42
2022-10-23T00:31:31.542Z,11.42
2022-10-23T00:31:41.554Z,11.42
2022-10-23T00:31:51.550Z,11.41
2022-10-23T00:32:01.489Z,11.41
2022-10-23T00:32:11.751Z,11.41
2022-10-23T00:32:21.542Z,11.41
2022-10-23T00:32:41.480Z,11.41
2022-10-23T00:32:51.541Z,11.41
2022-10-23T00:33:01.561Z,11.41
2022-10-23T00:33:11.470Z,11.40
2022-10-23T00:33:21.550Z,11.40
2022-10-23T00:33:32.915Z,11.40
2022-10-23T00:33:43.005Z,11.39
2022-10-23T00:33:52.441Z,11.39
2022-10-23T00:34:01.484Z,11.40
2022-10-23T00:34:12.447Z,11.40
2022-10-23T00:34:22.904Z,11.40
2022-10-23T00:34:31.452Z,11.40
2022-10-23T00:34:42.914Z,11.41
2022-10-23T00:34:52.923Z,11.39
2022-10-23T00:35:01.471Z,11.40
2022-10-23T00:35:12.952Z,11.41
2022-10-23T00:35:21.913Z,11.41
2022-10-23T00:35:31.930Z,11.42
2022-10-23T00:35:41.974Z,11.43
2022-10-23T00:35:51.898Z,11.42
2022-10-23T00:36:01.459Z,11.43
2022-10-23T00:36:12.910Z,11.43
2022-10-23T00:36:21.800Z,11.42
2022-10-23T00:36:31.944Z,11.43
2022-10-23T00:36:41.486Z,11.42
2022-10-23T00:36:52.017Z,11.42
2022-10-23T00:37:01.462Z,11.41
2022-10-23T00:37:12.911Z,11.42
2022-10-23T00:37:21.481Z,11.41
2022-10-23T00:37:32.051Z,11.43
2022-10-23T00:37:41.760Z,11.41
2022-10-23T00:37:51.701Z,11.42
2022-10-23T00:38:01.774Z,11.43
2022-10-23T00:38:12.899Z,11.42
2022-10-23T00:38:21.812Z,11.41
2022-10-23T00:38:32.893Z,11.41
2022-10-23T00:38:41.423Z,11.41
2022-10-23T00:38:51.579Z,11.42
2022-10-23T00:39:01.512Z,11.41
2022-10-23T00:39:11.412Z,11.42
2022-10-23T00:39:22.891Z,11.42
2022-10-23T00:39:32.211Z,11.41
2022-10-23T00:39:41.740Z,11.43
2022-10-23T00:39:51.460Z,11.44
2022-10-23T00:40:02.872Z,11.44
2022-10-23T00:40:11.522Z,11.43
2022-10-23T00:40:22.390Z,11.45
2022-10-23T00:40:31.662Z,11.44
2022-10-23T00:40:42.903Z,11.45
2022-10-23T00:40:51.438Z,11.43
2022-10-23T00:41:02.275Z,11.44
2022-10-23T00:41:12.883Z,11.44
2022-10-23T00:41:22.889Z,11.44
2022-10-23T00:41:31.491Z,11.44
2022-10-23T00:41:41.535Z,11.44
2022-10-23T00:41:52.877Z,11.44
2022-10-23T00:42:01.402Z,11.43
2022-10-23T00:42:11.430Z,11.45
2022-10-23T00:42:21.433Z,11.44
2022-10-23T00:42:31.424Z,11.44
2022-10-23T00:42:41.735Z,11.43
2022-10-23T00:42:52.891Z,11.42
2022-10-23T00:43:01.477Z,11.43
2022-10-23T00:43:11.513Z,11.44
2022-10-23T00:43:21.457Z,11.44
2022-10-23T00:43:31.473Z,11.44
2022-10-23T00:43:41.506Z,11.44
2022-10-23T00:43:51.443Z,11.44
2022-10-23T00:44:01.482Z,11.44
2022-10-23T00:44:12.844Z,11.43
2022-10-23T00:44:21.383Z,11.43
2022-10-23T00:44:31.406Z,11.44
2022-10-23T00:44:42.830Z,11.43
2022-10-23T00:44:51.377Z,11.42
2022-10-23T00:45:01.588Z,11.43
2022-10-23T00:45:11.467Z,11.43
2022-10-23T00:45:21.436Z,11.43
2022-10-23T00:45:31.637Z,11.42
2022-10-23T00:45:42.836Z,11.43
2022-10-23T00:45:52.012Z,11.42
2022-10-23T00:46:01.630Z,11.42
2022-10-23T00:46:11.625Z,11.42
2022-10-23T00:46:21.385Z,11.42
2022-10-23T00:46:31.363Z,11.42
2022-10-23T00:46:41.458Z,11.41
2022-10-23T00:46:51.424Z,11.41
2022-10-23T00:47:01.595Z,11.40
2022-10-23T00:47:11.645Z,11.40
2022-10-23T00:47:21.367Z,11.40
2022-10-23T00:47:31.737Z,11.41
2022-10-23T00:47:41.379Z,11.39
2022-10-23T00:47:52.845Z,11.40
2022-10-23T00:48:02.811Z,11.39
2022-10-23T00:48:11.416Z,11.40
2022-10-23T00:48:22.784Z,11.40
2022-10-23T00:48:32.124Z,11.39
2022-10-23T00:48:41.368Z,11.38
2022-10-23T00:48:52.115Z,11.39
2022-10-23T00:49:02.850Z,11.37
2022-10-23T00:49:21.367Z,11.37
2022-10-23T00:49:34.419Z,11.38
2022-10-23T00:49:42.922Z,11.33
2022-10-23T00:49:52.826Z,11.35
2022-10-23T00:50:02.159Z,11.36
2022-10-23T00:50:11.394Z,11.36
2022-10-23T00:50:21.396Z,11.37
2022-10-23T00:50:31.345Z,11.36
2022-10-23T00:50:42.174Z,11.37
2022-10-23T00:50:51.448Z,11.36
2022-10-23T00:51:02.788Z,11.37
2022-10-23T00:51:11.426Z,11.36
2022-10-23T00:51:21.324Z,11.38
2022-10-23T00:51:31.325Z,11.38
2022-10-23T00:51:41.363Z,11.37
2022-10-23T00:51:51.318Z,11.37
2022-10-23T00:52:01.345Z,11.36
2022-10-23T00:52:11.385Z,11.36
2022-10-23T00:52:21.305Z,11.36
2022-10-23T00:52:31.336Z,11.36
2022-10-23T00:52:41.688Z,11.35
2022-10-23T00:52:51.313Z,11.34
2022-10-23T00:53:01.336Z,11.34
2022-10-23T00:53:11.365Z,11.34
2022-10-23T00:53:21.295Z,11.32
2022-10-23T00:53:31.338Z,11.33
2022-10-23T00:53:41.374Z,11.33
2022-10-23T00:54:01.088Z,11.34
2022-10-23T00:54:22.786Z,11.28
2022-10-23T00:54:25.224Z,11.26
2022-10-23T00:54:26.829Z,11.28
2022-10-23T00:54:31.410Z,11.26
2022-10-23T00:54:41.285Z,11.29
2022-10-23T00:54:51.315Z,11.30
2022-10-23T00:55:01.345Z,11.30
2022-10-23T00:55:11.293Z,11.30
2022-10-23T00:55:21.320Z,11.30
2022-10-23T00:55:31.302Z,11.30
2022-10-23T00:55:41.643Z,11.30
2022-10-23T00:55:51.424Z,11.30
2022-10-23T00:56:01.275Z,11.29
2022-10-23T00:56:11.395Z,11.30
2022-10-23T00:56:21.416Z,11.29
2022-10-23T00:56:31.305Z,11.28
2022-10-23T00:56:41.342Z,11.27
2022-10-23T00:56:52.754Z,11.27
2022-10-23T00:57:02.254Z,11.26
2022-10-23T00:57:11.306Z,11.26
2022-10-23T00:57:21.375Z,11.27
2022-10-23T00:57:31.839Z,11.27
2022-10-23T00:57:42.295Z,11.26
2022-10-23T00:57:52.298Z,11.26
2022-10-23T00:58:02.284Z,11.26
2022-10-23T00:58:11.323Z,11.27
2022-10-23T00:58:21.313Z,11.27
2022-10-23T00:58:31.296Z,11.26
2022-10-23T00:58:41.563Z,11.26
2022-10-23T00:58:52.747Z,11.26
2022-10-23T00:59:02.728Z,11.25
2022-10-23T00:59:11.456Z,11.25
2022-10-23T00:59:21.277Z,11.26
2022-10-23T00:59:31.428Z,11.25
2022-10-23T00:59:41.377Z,11.24
2022-10-23T00:59:51.277Z,11.25
2022-10-23T01:00:01.308Z,11.24
2022-10-23T01:00:11.376Z,11.24
2022-10-23T01:00:22.800Z,11.24
2022-10-23T01:00:32.719Z,11.22
2022-10-23T01:00:41.717Z,11.22
2022-10-23T01:00:51.288Z,11.23
2022-10-23T01:01:02.816Z,11.22
2022-10-23T01:01:11.372Z,11.21
2022-10-23T01:01:22.861Z,11.22
2022-10-23T01:01:32.844Z,11.21
2022-10-23T01:01:41.518Z,11.21
2022-10-23T01:01:51.461Z,11.22
2022-10-23T01:02:01.603Z,11.21
2022-10-23T01:02:11.429Z,11.22
2022-10-23T01:02:22.097Z,11.21
2022-10-23T01:02:31.301Z,11.21
2022-10-23T01:02:41.690Z,11.22
2022-10-23T01:02:52.711Z,11.21
2022-10-23T01:03:02.220Z,11.21
2022-10-23T01:03:12.749Z,11.21
2022-10-23T01:03:22.710Z,11.22
2022-10-23T01:03:31.276Z,11.21
2022-10-23T01:03:41.265Z,11.22
2022-10-23T01:03:51.354Z,11.23
2022-10-23T01:04:02.716Z,11.22
2022-10-23T01:04:12.186Z,11.22
2022-10-23T01:04:22.705Z,11.23
2022-10-23T01:04:31.367Z,11.23
2022-10-23T01:04:42.098Z,11.23
2022-10-23T01:04:51.257Z,11.22
2022-10-23T01:05:01.281Z,11.23
2022-10-23T01:05:11.308Z,11.23
2022-10-23T01:05:22.701Z,11.23
2022-10-23T01:05:31.298Z,11.21
2022-10-23T01:05:42.716Z,11.22
2022-10-23T01:05:52.226Z,11.21
2022-10-23T01:06:01.279Z,11.21
2022-10-23T01:06:12.692Z,11.22
2022-10-23T01:06:21.237Z,11.20
2022-10-23T01:06:31.209Z,11.20
2022-10-23T01:06:41.558Z,11.20
2022-10-23T01:06:52.658Z,11.19
2022-10-23T01:07:01.218Z,11.18
2022-10-23T01:07:12.688Z,11.20
2022-10-23T01:07:21.244Z,11.18
2022-10-23T01:07:32.079Z,11.19
2022-10-23T01:07:41.889Z,11.18
2022-10-23T01:07:52.656Z,11.18
2022-10-23T01:08:02.658Z,11.17
2022-10-23T01:08:12.234Z,11.17
2022-10-23T01:08:21.236Z,11.17
2022-10-23T01:08:32.671Z,11.18
2022-10-23T01:08:41.241Z,11.16
2022-10-23T01:08:53.370Z,11.17
2022-10-23T01:09:02.683Z,11.16
2022-10-23T01:09:12.689Z,11.16
2022-10-23T01:09:22.159Z,11.16
2022-10-23T01:09:32.669Z,11.15
2022-10-23T01:09:41.251Z,11.14
2022-10-23T01:09:52.669Z,11.15
2022-10-23T01:10:01.188Z,11.12
2022-10-23T01:10:12.699Z,11.13
2022-10-23T01:10:21.706Z,11.10
2022-10-23T01:10:31.654Z,11.11
2022-10-23T01:10:42.680Z,11.11
2022-10-23T01:10:52.649Z,11.10
2022-10-23T01:11:01.340Z,11.09
2022-10-23T01:11:11.219Z,11.09
2022-10-23T01:11:21.361Z,11.09
2022-10-23T01:11:32.705Z,11.08
2022-10-23T01:11:41.708Z,11.08
2022-10-23T01:11:51.197Z,11.08
2022-10-23T01:12:01.190Z,11.07
2022-10-23T01:12:12.632Z,11.07
2022-10-23T01:12:21.738Z,11.05
2022-10-23T01:12:31.671Z,11.06
2022-10-23T01:12:41.711Z,11.05
2022-10-23T01:12:52.630Z,11.05
2022-10-23T01:13:01.188Z,11.03
2022-10-23T01:13:11.218Z,11.04
2022-10-23T01:13:22.654Z,11.03
2022-10-23T01:13:31.255Z,11.03
2022-10-23T01:13:41.711Z,11.05
2022-10-23T01:13:52.658Z,11.03
2022-10-23T01:14:01.211Z,11.03
2022-10-23T01:14:12.640Z,11.03
2022-10-23T01:14:21.201Z,11.02
2022-10-23T01:14:32.175Z,11.02
2022-10-23T01:14:41.617Z,11.00
2022-10-23T01:14:52.609Z,11.00
2022-10-23T01:15:02.608Z,10.98
2022-10-23T01:15:12.629Z,10.97
2022-10-23T01:15:21.168Z,10.98
2022-10-23T01:15:31.190Z,10.98
2022-10-23T01:15:41.151Z,10.98
2022-10-23T01:15:52.611Z,10.96
2022-10-23T01:16:01.367Z,10.94
2022-10-23T01:16:11.202Z,10.96
2022-10-23T01:16:22.618Z,10.95
2022-10-23T01:16:32.621Z,10.94
2022-10-23T01:16:42.622Z,10.94
2022-10-23T01:16:52.151Z,10.94
2022-10-23T01:17:01.801Z,10.94
2022-10-23T01:17:11.136Z,10.93
2022-10-23T01:17:21.144Z,10.93
2022-10-23T01:17:32.609Z,10.92
2022-10-23T01:17:44.545Z,10.91
2022-10-23T01:17:51.464Z,10.88
2022-10-23T01:18:40.035Z,10.80
2022-10-23T01:18:50.049Z,10.82
2022-10-23T01:19:00.020Z,10.84
2022-10-23T01:19:10.040Z,10.85
2022-10-23T01:19:18.579Z,10.85
2022-10-23T01:19:28.663Z,10.86
2022-10-23T01:19:38.559Z,10.86
2022-10-23T01:19:50.029Z,10.85
2022-10-23T01:19:58.567Z,10.85
2022-10-23T01:20:09.569Z,10.87
2022-10-23T01:20:20.103Z,10.84
2022-10-23T01:20:30.031Z,10.84
2022-10-23T01:20:38.612Z,10.84
2022-10-23T01:20:48.588Z,10.85
2022-10-23T01:20:58.560Z,10.84
2022-10-23T01:21:10.043Z,10.83
2022-10-23T01:21:19.529Z,10.82
2022-10-23T01:21:30.020Z,10.82
2022-10-23T01:21:38.818Z,10.81
2022-10-23T01:21:49.989Z,10.82
2022-10-23T01:21:59.989Z,10.82
2022-10-23T01:22:08.581Z,10.81
2022-10-23T01:22:18.661Z,10.81
2022-10-23T01:22:29.371Z,10.81
2022-10-23T01:22:38.864Z,10.80
2022-10-23T01:22:49.998Z,10.81
2022-10-23T01:22:59.999Z,10.80
2022-10-23T01:23:10.143Z,10.80
2022-10-23T01:23:19.541Z,10.79
2022-10-23T01:23:30.044Z,10.79
2022-10-23T01:23:40.014Z,10.78
2022-10-23T01:23:50.023Z,10.77
2022-10-23T01:24:00.024Z,10.77
2022-10-23T01:24:09.056Z,10.77
2022-10-23T01:24:18.528Z,10.77
2022-10-23T01:24:29.519Z,10.77
2022-10-23T01:24:39.491Z,10.76
2022-10-23T01:24:48.649Z,10.76
2022-10-23T01:24:59.990Z,10.76
2022-10-23T01:25:09.980Z,10.75
2022-10-23T01:25:19.350Z,10.76
2022-10-23T01:25:29.130Z,10.77
2022-10-23T01:25:38.531Z,10.76
2022-10-23T01:25:49.999Z,10.76
2022-10-23T01:25:58.533Z,10.75
2022-10-23T01:26:09.990Z,10.76
2022-10-23T01:26:19.981Z,10.75
2022-10-23T01:26:29.997Z,10.75
2022-10-23T01:26:38.568Z,10.75
2022-10-23T01:26:49.197Z,10.75
2022-10-23T01:26:59.964Z,10.74
2022-10-23T01:27:08.511Z,10.73
2022-10-23T01:27:19.981Z,10.74
2022-10-23T01:27:28.530Z,10.73
2022-10-23T01:27:39.989Z,10.74
2022-10-23T01:27:48.570Z,10.72
2022-10-23T01:27:59.962Z,10.74
2022-10-23T01:28:09.971Z,10.72
2022-10-23T01:28:19.961Z,10.72
2022-10-23T01:28:29.952Z,10.71
2022-10-23T01:28:39.950Z,10.71
2022-10-23T01:28:48.503Z,10.72
2022-10-23T01:28:58.541Z,10.72
2022-10-23T01:29:08.563Z,10.72
2022-10-23T01:29:19.970Z,10.71
2022-10-23T01:29:28.556Z,10.70
2022-10-23T01:29:38.489Z,10.71
2022-10-23T01:29:48.514Z,10.70
2022-10-23T01:29:58.692Z,10.70
2022-10-23T01:30:09.954Z,10.69
2022-10-23T01:30:18.491Z,10.68
2022-10-23T01:30:29.955Z,10.69
2022-10-23T01:30:38.557Z,10.68
2022-10-23T01:30:48.691Z,10.69
2022-10-23T01:30:58.573Z,10.69
2022-10-23T01:31:09.932Z,10.67
2022-10-23T01:31:18.799Z,10.67
2022-10-23T01:31:28.832Z,10.68
2022-10-23T01:31:38.494Z,10.68
2022-10-23T01:31:48.529Z,10.67
2022-10-23T01:31:58.611Z,10.67
2022-10-23T01:32:08.772Z,10.68
2022-10-23T01:32:18.804Z,10.68
2022-10-23T01:32:28.490Z,10.68
2022-10-23T01:32:38.462Z,10.67
2022-10-23T01:32:48.463Z,10.69
2022-10-23T01:32:58.843Z,10.67
2022-10-23T01:33:08.472Z,10.67
2022-10-23T01:33:18.465Z,10.68
2022-10-23T01:33:29.561Z,10.67
2022-10-23T01:33:38.883Z,10.67
2022-10-23T01:33:49.906Z,10.67
2022-10-23T01:33:59.932Z,10.66
2022-10-23T01:34:08.883Z,10.66
2022-10-23T01:34:19.913Z,10.67
2022-10-23T01:34:28.952Z,10.66
2022-10-23T01:34:38.555Z,10.68
2022-10-23T01:34:48.501Z,10.67
2022-10-23T01:34:58.964Z,10.68
2022-10-23T01:35:09.907Z,10.67
2022-10-23T01:35:18.922Z,10.66
2022-10-23T01:35:28.963Z,10.68
2022-10-23T01:35:39.920Z,10.67
2022-10-23T01:35:48.454Z,10.66
2022-10-23T01:35:58.452Z,10.68
2022-10-23T01:36:08.452Z,10.67
2022-10-23T01:36:18.463Z,10.68
2022-10-23T01:36:28.963Z,10.66
2022-10-23T01:36:38.464Z,10.66
2022-10-23T01:36:49.073Z,10.66
2022-10-23T01:36:58.447Z,10.67
2022-10-23T01:37:09.105Z,10.68
2022-10-23T01:37:18.433Z,10.67
2022-10-23T01:37:28.420Z,10.69
2022-10-23T01:37:39.114Z,10.69
2022-10-23T01:37:49.867Z,10.69
2022-10-23T01:37:58.432Z,10.69
2022-10-23T01:38:09.115Z,10.69
2022-10-23T01:38:18.433Z,10.70
2022-10-23T01:38:28.434Z,10.70
2022-10-23T01:38:38.420Z,10.69
2022-10-23T01:38:49.158Z,10.68
2022-10-23T01:38:59.146Z,10.69
2022-10-23T01:39:08.454Z,10.68
2022-10-23T01:39:19.160Z,10.69
2022-10-23T01:39:28.414Z,10.69
2022-10-23T01:39:38.464Z,10.69
2022-10-23T01:39:49.163Z,10.69
2022-10-23T01:39:58.414Z,10.68
2022-10-23T01:40:08.824Z,10.68
2022-10-23T01:40:19.163Z,10.68
2022-10-23T01:40:29.172Z,10.68
2022-10-23T01:40:38.418Z,10.67
2022-10-23T01:40:48.411Z,10.68
2022-10-23T01:40:59.205Z,10.68
2022-10-23T01:41:08.414Z,10.66
2022-10-23T01:41:19.274Z,10.67
2022-10-23T01:41:29.213Z,10.66
2022-10-23T01:41:38.473Z,10.66
2022-10-23T01:41:49.274Z,10.67
2022-10-23T01:41:58.404Z,10.66
2022-10-23T01:42:08.405Z,10.67
2022-10-23T01:42:18.464Z,10.67
2022-10-23T01:42:29.825Z,10.67
2022-10-23T01:42:39.453Z,10.66
2022-10-23T01:42:49.364Z,10.66
2022-10-23T01:42:59.324Z,10.66
2022-10-23T01:43:09.353Z,10.66
2022-10-23T01:43:18.401Z,10.66
2022-10-23T01:43:28.730Z,10.66
2022-10-23T01:43:38.428Z,10.66
2022-10-23T01:43:49.394Z,10.67
2022-10-23T01:43:58.385Z,10.66
2022-10-23T01:44:09.054Z,10.67
2022-10-23T01:44:18.408Z,10.67
2022-10-23T01:44:28.429Z,10.67
2022-10-23T01:44:38.466Z,10.67
2022-10-23T01:44:48.425Z,10.68
2022-10-23T01:44:58.394Z,10.67
2022-10-23T01:45:08.394Z,10.68
2022-10-23T01:45:18.402Z,10.66
2022-10-23T01:45:29.835Z,10.68
2022-10-23T01:45:38.436Z,10.66
2022-10-23T01:45:48.425Z,10.68
2022-10-23T01:45:58.402Z,10.67
2022-10-23T01:46:08.385Z,10.67
2022-10-23T01:46:18.376Z,10.66
2022-10-23T01:46:29.835Z,10.65
2022-10-23T01:46:39.907Z,10.64
2022-10-23T01:46:49.335Z,10.63
2022-10-23T01:46:58.444Z,10.64
2022-10-23T01:47:08.429Z,10.63
2022-10-23T01:47:18.443Z,10.62
2022-10-23T01:47:28.388Z,10.62
2022-10-23T01:47:38.470Z,10.62
2022-10-23T01:47:48.559Z,10.62
2022-10-23T01:47:58.406Z,10.62
2022-10-23T01:48:08.366Z,10.62
2022-10-23T01:48:20.526Z,10.62
2022-10-23T01:48:28.386Z,10.60
2022-10-23T01:48:38.395Z,10.63
2022-10-23T01:48:48.347Z,10.62
2022-10-23T01:48:58.366Z,10.61
2022-10-23T01:49:09.838Z,10.63
2022-10-23T01:49:19.826Z,10.61
2022-10-23T01:49:28.392Z,10.62
2022-10-23T01:49:38.490Z,10.63
2022-10-23T01:49:48.347Z,10.62
2022-10-23T01:49:58.346Z,10.62
2022-10-23T01:50:08.445Z,10.62
2022-10-23T01:50:18.346Z,10.61
2022-10-23T01:50:29.810Z,10.61
2022-10-23T01:50:38.377Z,10.60
2022-10-23T01:50:49.392Z,10.61
2022-10-23T01:50:58.540Z,10.60
2022-10-23T01:51:08.338Z,10.61
2022-10-23T01:51:18.348Z,10.61
2022-10-23T01:51:28.532Z,10.61
2022-10-23T01:51:39.819Z,10.60
2022-10-23T01:51:49.107Z,10.60
2022-10-23T01:51:59.818Z,10.61
2022-10-23T01:52:09.827Z,10.60
2022-10-23T01:52:18.497Z,10.61
2022-10-23T01:52:28.328Z,10.61
2022-10-23T01:52:38.531Z,10.62
2022-10-23T01:52:48.526Z,10.61
2022-10-23T01:52:58.407Z,10.61
2022-10-23T01:53:08.341Z,10.61
2022-10-23T01:53:18.367Z,10.61
2022-10-23T01:53:28.327Z,10.60
2022-10-23T01:53:38.358Z,10.60
2022-10-23T01:53:48.367Z,10.60
2022-10-23T01:53:58.359Z,10.59
2022-10-23T01:54:08.326Z,10.59
2022-10-23T01:54:19.131Z,10.59
2022-10-23T01:54:28.328Z,10.58
2022-10-23T01:54:38.349Z,10.58
2022-10-23T01:54:48.307Z,10.58
2022-10-23T01:54:58.347Z,10.59
2022-10-23T01:55:08.548Z,10.58
2022-10-23T01:55:18.342Z,10.58
2022-10-23T01:55:28.350Z,10.59
2022-10-23T01:55:39.794Z,10.58
2022-10-23T01:55:48.356Z,10.57
2022-10-23T01:55:58.318Z,10.58
2022-10-23T01:56:08.519Z,10.57
2022-10-23T01:56:18.307Z,10.57
2022-10-23T01:56:28.596Z,10.57
2022-10-23T01:56:38.309Z,10.57
2022-10-23T01:56:49.780Z,10.57
2022-10-23T01:56:59.315Z,10.55
2022-10-23T01:57:08.378Z,10.55
2022-10-23T01:57:18.597Z,10.56
2022-10-23T01:57:28.765Z,10.55
2022-10-23T01:57:38.336Z,10.55
2022-10-23T01:57:48.318Z,10.55
2022-10-23T01:57:58.319Z,10.54
2022-10-23T01:58:08.659Z,10.54
2022-10-23T01:58:18.727Z,10.54
2022-10-23T01:58:28.380Z,10.54
2022-10-23T01:58:38.357Z,10.53
2022-10-23T01:58:48.571Z,10.53
2022-10-23T01:58:58.369Z,10.51
2022-10-23T01:59:08.460Z,10.52
2022-10-23T01:59:18.322Z,10.51
2022-10-23T01:59:28.384Z,10.50
2022-10-23T01:59:38.328Z,10.50
2022-10-23T01:59:48.581Z,10.49
2022-10-23T01:59:59.748Z,10.48
2022-10-23T02:00:08.347Z,10.46
2022-10-23T02:00:20.494Z,10.46
2022-10-23T02:00:29.312Z,10.44
2022-10-23T02:00:38.321Z,10.45
2022-10-23T02:00:48.362Z,10.45
2022-10-23T02:00:58.367Z,10.45
2022-10-23T02:01:09.931Z,10.44
2022-10-23T02:01:18.407Z,10.44
2022-10-23T02:01:28.403Z,10.45
2022-10-23T02:01:39.401Z,10.45
2022-10-23T02:01:49.343Z,10.44
2022-10-23T02:01:59.854Z,10.44
2022-10-23T02:02:09.827Z,10.44
2022-10-23T02:02:18.335Z,10.44
2022-10-23T02:02:28.392Z,10.45
2022-10-23T02:02:38.361Z,10.44
2022-10-23T02:02:48.377Z,10.44
2022-10-23T02:02:59.758Z,10.45
2022-10-23T02:03:09.275Z,10.43
2022-10-23T02:03:19.293Z,10.44
2022-10-23T02:03:28.323Z,10.44
2022-10-23T02:03:39.261Z,10.44
2022-10-23T02:03:49.812Z,10.42
2022-10-23T02:04:09.424Z,10.38
2022-10-23T02:04:19.350Z,10.41
2022-10-23T02:04:29.422Z,10.41
2022-10-23T02:04:40.859Z,10.40
2022-10-23T02:04:50.800Z,10.40
2022-10-23T02:04:59.380Z,10.40
2022-10-23T02:05:09.385Z,10.40
2022-10-23T02:05:19.373Z,10.39
2022-10-23T02:05:29.394Z,10.39
2022-10-23T02:05:39.366Z,10.39
2022-10-23T02:05:49.411Z,10.38
2022-10-23T02:05:59.377Z,10.38
2022-10-23T02:06:10.292Z,10.38
2022-10-23T02:06:20.792Z,10.37
2022-10-23T02:06:29.334Z,10.37
2022-10-23T02:06:39.342Z,10.38
2022-10-23T02:06:49.362Z,10.37
2022-10-23T02:06:59.333Z,10.37
2022-10-23T02:07:10.888Z,10.36
2022-10-23T02:07:19.335Z,10.35
2022-10-23T02:07:30.742Z,10.36
2022-10-23T02:07:39.575Z,10.34
2022-10-23T02:07:49.385Z,10.34
2022-10-23T02:08:00.771Z,10.35
2022-10-23T02:08:09.351Z,10.34
2022-10-23T02:08:19.447Z,10.34
2022-10-23T02:08:30.755Z,10.34
2022-10-23T02:08:39.394Z,10.33
2022-10-23T02:08:49.564Z,10.34
2022-10-23T02:08:59.281Z,10.33
2022-10-23T02:09:10.807Z,10.33
2022-10-23T02:09:20.742Z,10.32
2022-10-23T02:09:29.316Z,10.31
2022-10-23T02:09:40.751Z,10.32
2022-10-23T02:09:49.472Z,10.30
2022-10-23T02:09:59.293Z,10.31